Map

Track Data

SID SEASON NUMBER BASIN SUBBASIN NAME ISO_TIME NATURE LAT LON WMO_WIND WMO_PRES WMO_AGENCY TRACK_TYPE DIST2LAND LANDFALL IFLAG USA_AGENCY USA_ATCF_ID USA_LAT USA_LON USA_RECORD USA_STATUS USA_WIND USA_PRES USA_SSHS USA_R34_NE USA_R34_SE USA_R34_SW USA_R34_NW USA_R50_NE USA_R50_SE USA_R50_SW USA_R50_NW USA_R64_NE USA_R64_SE USA_R64_SW USA_R64_NW USA_POCI USA_ROCI USA_RMW USA_EYE TOKYO_LAT TOKYO_LON TOKYO_GRADE TOKYO_WIND TOKYO_PRES TOKYO_R50_DIR TOKYO_R50_LONG TOKYO_R50_SHORT TOKYO_R30_DIR TOKYO_R30_LONG TOKYO_R30_SHORT TOKYO_LAND CMA_LAT CMA_LON CMA_CAT CMA_WIND CMA_PRES HKO_LAT HKO_LON HKO_CAT HKO_WIND HKO_PRES NEWDELHI_LAT NEWDELHI_LON NEWDELHI_GRADE NEWDELHI_WIND NEWDELHI_PRES NEWDELHI_CI NEWDELHI_DP NEWDELHI_POCI REUNION_LAT REUNION_LON REUNION_TYPE REUNION_WIND REUNION_PRES REUNION_TNUM REUNION_CI REUNION_RMW REUNION_R34_NE REUNION_R34_SE REUNION_R34_SW REUNION_R34_NW REUNION_R50_NE REUNION_R50_SE REUNION_R50_SW REUNION_R50_NW REUNION_R64_NE REUNION_R64_SE REUNION_R64_SW REUNION_R64_NW BOM_LAT BOM_LON BOM_TYPE BOM_WIND BOM_PRES BOM_TNUM BOM_CI BOM_RMW BOM_R34_NE BOM_R34_SE BOM_R34_SW BOM_R34_NW BOM_R50_NE BOM_R50_SE BOM_R50_SW BOM_R50_NW BOM_R64_NE BOM_R64_SE BOM_R64_SW BOM_R64_NW BOM_ROCI BOM_POCI BOM_EYE BOM_POS_METHOD BOM_PRES_METHOD NADI_LAT NADI_LON NADI_CAT NADI_WIND NADI_PRES WELLINGTON_LAT WELLINGTON_LON WELLINGTON_WIND WELLINGTON_PRES DS824_LAT DS824_LON DS824_STAGE DS824_WIND DS824_PRES TD9636_LAT TD9636_LON TD9636_STAGE TD9636_WIND TD9636_PRES TD9635_LAT TD9635_LON TD9635_WIND TD9635_PRES TD9635_ROCI NEUMANN_LAT NEUMANN_LON NEUMANN_CLASS NEUMANN_WIND NEUMANN_PRES MLC_LAT MLC_LON MLC_CLASS MLC_WIND MLC_PRES USA_GUST BOM_GUST BOM_GUST_PER REUNION_GUST REUNION_GUST_PER USA_SEAHGT USA_SEARAD_NE USA_SEARAD_SE USA_SEARAD_SW USA_SEARAD_NW STORM_SPEED STORM_DIR
1944077S10059 1944 22 SI MM NOT_NAMED 1944-03-16 18:00:00 NR -10.0000 59.1000 main 1057 1029 __________O___ -1 -10.0000 59.1000 7 5 224
1944077S10059 1944 22 SI MM NOT_NAMED 1944-03-16 21:00:00 NR -10.1907 58.9126 main 1029 1001 __________P___ -1 -10.1907 58.9126 7 5 224
1944077S10059 1944 22 SI MM NOT_NAMED 1944-03-17 00:00:00 NR -10.3850 58.7201 main 1001 974 __________P___ -1 -10.3850 58.7201 7 6 224
1944077S10059 1944 22 SI MM NOT_NAMED 1944-03-17 03:00:00 NR -10.5869 58.5176 main 974 947 __________P___ -1 -10.5869 58.5176 7 6 225
1944077S10059 1944 22 SI MM NOT_NAMED 1944-03-17 06:00:00 TS -10.8000 58.3000 main 947 920 _________OO___ -1 -10.8000 58.3000 TC 25 -10.8000 58.3000 1 6 225
1944077S10059 1944 22 SI MM NOT_NAMED 1944-03-17 09:00:00 TS -11.0358 58.0596 main 920 879 _________PP___ -1 -11.0525 58.0501 TC 25 -11.0275 58.0643 1 7 225
1944077S10059 1944 22 SI MM NOT_NAMED 1944-03-17 12:00:00 TS -11.2829 57.8085 main 879 852 _________OP___ -1 -11.3000 57.8000 TC 25 -11.2700 57.8149 1 7 225
1944077S10059 1944 22 SI MM NOT_NAMED 1944-03-17 15:00:00 TS -11.5350 57.5540 main 852 812 _________PP___ -1 -11.5425 57.5499 TC 25 -11.5275 57.5580 1 7 224
1944077S10059 1944 22 SI MM NOT_NAMED 1944-03-17 18:00:00 TS -11.8000 57.3000 main 812 782 _________OO___ -1 -11.8000 57.3000 TC 25 -11.8000 57.3000 1 8 222
1944077S10059 1944 22 SI MM NOT_NAMED 1944-03-17 21:00:00 TS -12.0972 57.0460 main 771 742 _________PP___ -1 -12.0925 57.0500 TC 25 -12.1018 57.0420 1 8 219
1944077S10059 1944 22 SI MM NOT_NAMED 1944-03-18 00:00:00 TS -12.4075 56.7926 main 742 714 _________OP___ -1 -12.4000 56.8000 TC 25 -12.4150 56.7851 1 8 219
1944077S10059 1944 22 SI MM NOT_NAMED 1944-03-18 03:00:00 TS -12.7178 56.5391 main 703 672 _________PP___ -1 -12.7150 56.5425 TC 25 -12.7206 56.5357 1 8 219
1944077S10059 1944 22 SI MM NOT_NAMED 1944-03-18 06:00:00 TS -13.0000 56.3000 main 672 644 _________OO___ -1 -13.0000 56.3000 TC 25 -13.0000 56.3000 1 7 221
1944077S10059 1944 22 SI MM NOT_NAMED 1944-03-18 09:00:00 TS -13.2198 56.0868 main 644 615 _________PP___ -1 -13.2150 56.0924 TC 25 -13.2246 56.0813 1 6 224
1944077S10059 1944 22 SI MM NOT_NAMED 1944-03-18 12:00:00 TS -13.4112 55.8886 main 615 588 _________OP___ -1 -13.4000 55.9000 TC 25 -13.4224 55.8771 1 5 225
1944077S10059 1944 22 SI MM NOT_NAMED 1944-03-18 15:00:00 TS -13.6045 55.6922 main 588 560 _________PP___ -1 -13.6000 55.7000 TC 25 -13.6090 55.6844 1 5 224
1944077S10059 1944 22 SI MM NOT_NAMED 1944-03-18 18:00:00 TS -13.8000 55.5000 main 560 533 _________OO___ -1 -13.8000 55.5000 TC 25 -13.8000 55.5000 1 5 223
1944077S10059 1944 22 SI MM NOT_NAMED 1944-03-18 21:00:00 TS -13.9847 55.3210 main 533 517 _________PP___ -1 -13.9925 55.2925 TC 25 -13.9769 55.3495 1 5 221
1944077S10059 1944 22 SI MM NOT_NAMED 1944-03-19 00:00:00 TS -14.1835 55.1506 main 517 492 _________OP___ -1 -14.2000 55.1000 TC 25 -14.1671 55.2013 1 5 217
1944077S10059 1944 22 SI MM NOT_NAMED 1944-03-19 03:00:00 TS -14.4018 54.9998 main 492 465 _________PP___ -1 -14.4049 54.9722 TC 25 -14.3987 55.0274 1 6 213
1944077S10059 1944 22 SI MM NOT_NAMED 1944-03-19 06:00:00 TS -14.7000 54.8000 main 465 429 _________OO___ -1 -14.7000 54.8000 TC 25 -14.7000 54.8000 1 9 215
1944077S10059 1944 22 SI MM NOT_NAMED 1944-03-19 09:00:00 TS -15.1287 54.4772 main 429 386 _________PP___ -1 -15.1700 54.4876 TC 25 -15.0873 54.4667 1 12 217
1944077S10059 1944 22 SI MM NOT_NAMED 1944-03-19 12:00:00 TS -15.6228 54.0903 main 386 349 _________OP___ -1 -15.7000 54.1000 TC 25 -15.5456 54.0806 1 12 218
1944077S10059 1944 22 SI MM NOT_NAMED 1944-03-19 15:00:00 TS -16.0993 53.6894 main 351 323 _________PP___ -1 -16.1425 53.6998 TC 25 -16.0561 53.6791 1 12 218
1944077S10059 1944 22 SI MM NOT_NAMED 1944-03-19 18:00:00 TS -16.6000 53.3000 main 328 317 _________OO___ -1 -16.6000 53.3000 TC 25 -16.6000 53.3000 1 13 215
1944077S10059 1944 22 SI MM NOT_NAMED 1944-03-19 21:00:00 TS -17.1409 52.9321 main 313 312 _________PP___ -1 -17.1275 52.9200 TC 25 -17.1543 52.9441 1 13 210
1944077S10059 1944 22 SI MM NOT_NAMED 1944-03-20 00:00:00 TS -17.7175 52.6118 main 313 307 _________OP___ -1 -17.7000 52.6000 TC 25 -17.7350 52.6237 1 13 205
1944077S10059 1944 22 SI MM NOT_NAMED 1944-03-20 03:00:00 TS -18.3116 52.3569 main 313 300 _________PP___ -1 -18.2999 52.3475 TC 25 -18.3232 52.3663 1 13 198
1944077S10059 1944 22 SI MM NOT_NAMED 1944-03-20 06:00:00 TS -18.9000 52.2000 main 305 305 _________OO___ -1 -18.9000 52.2000 TC 25 -18.9000 52.2000 1 12 190
1944077S10059 1944 22 SI MM NOT_NAMED 1944-03-20 09:00:00 TS -19.4621 52.1430 main 317 317 _________PP___ -1 -19.4649 52.1548 TC 25 -19.4593 52.1312 1 11 0
1944077S10059 1944 22 SI MM NOT_NAMED 1944-03-20 12:00:00 TS -20.0010 52.1782 main 335 308 _________OP___ -1 -20.0000 52.2000 TC 25 -20.0020 52.1564 1 11 174
1944077S10059 1944 22 SI MM NOT_NAMED 1944-03-20 15:00:00 TS -20.5206 52.2655 main 308 290 _________PP___ -1 -20.5225 52.2775 TC 25 -20.5188 52.2535 1 10 168
1944077S10059 1944 22 SI MM NOT_NAMED 1944-03-20 18:00:00 TS -21.0000 52.4000 main 290 280 _________OO___ -1 -21.0000 52.4000 TC 25 -21.0000 52.4000 1 10 164
1944077S10059 1944 22 SI MM NOT_NAMED 1944-03-20 21:00:00 TS -21.4273 52.5518 main 271 267 _________PP___ -1 -21.4149 52.5277 TC 25 -21.4396 52.5759 1 9 159
1944077S10059 1944 22 SI MM NOT_NAMED 1944-03-21 00:00:00 TS -21.8227 52.7361 main 270 258 _________OP___ -1 -21.8000 52.7000 TC 25 -21.8454 52.7721 1 9 154
1944077S10059 1944 22 SI MM NOT_NAMED 1944-03-21 03:00:00 TS -22.2118 52.9572 main 257 254 _________PP___ -1 -22.1951 52.9321 TC 25 -22.2285 52.9823 1 9 151
1944077S10059 1944 22 SI MM NOT_NAMED 1944-03-21 06:00:00 TS -22.6000 53.2000 main 260 _________OO___ -1 -22.6000 53.2000 TC 25 -22.6000 53.2000 1 9 150

About IBTrACS Database

This database is a web-friendly format of International Best Track Archive for Climate Stewardship (IBTrACS), a global best track data archive curated by NOAA dating back to 1842.

Updated: 2021-10-21